Cebollita Spring, Valles Caldera, New Mexico Weather observations

Data are for 10 minute period ending at time listed.
 Day   Time   Solar   Ave.   Ave.  Ave.  Vector  Max.   Baro.   Total    
  of    of     Rad.   Air    Rel.  Wind   Wind   Wind  Press.  Precip.   
Year   Day            Temp.  Hum.  Speed  Dir.   Gust                    
2014   (MST)  Kw/m2    F      %     mph   deg.    mph    mb.     in.     
-------------------------------------------------------------------------
 293    8:30   0.50   51.9    56    4.2   118    10.2   99999.0    0.00 
 293    8:40   0.53   53.0    54    5.0   138    10.2   99999.0    0.00 
 293    8:50   0.56   54.1    52    3.2    78     7.8   99999.0    0.00 
 293    9:00   0.59   54.9    51    3.1    60     7.2   99999.0    0.00 
 293    9:10   0.62   56.0    49    4.3    80     8.4   99999.0    0.00 
 293    9:20   0.66   56.9    47    4.5    85     9.6   99999.0    0.00 
 293    9:30   0.69   57.1    46    4.7    81     7.8   99999.0    0.00 
 293    9:40   0.70   57.9    45    3.9    91     9.0   99999.0    0.00 
 293    9:50   0.69   59.1    44    5.1    81    11.3   99999.0    0.00 
 293   10:00   0.39   57.6    45    6.2    88    13.7   99999.0    0.00 
 293   10:10   0.44   56.9    46    6.2    76    12.5   99999.0    0.00 
 293   10:20   0.28   56.8    46    4.8    93    10.2   99999.0    0.00 
 293   10:30   0.45   56.8    47    4.4    76    10.8   99999.0    0.00 
 293   10:40   0.32   57.9    44    5.1   127    12.5   99999.0    0.00 
 293   10:50   0.37   57.4    46    4.3   138     8.4   99999.0    0.00 
 293   11:00   0.71   59.6    42    6.1   147    13.7   99999.0    0.00 
 293   11:10   0.91   60.8    40    6.3   152    11.3   99999.0    0.00 
 293   11:20   0.69   61.4    39    6.1   116    13.7   99999.0    0.00 
 293   11:30   0.64   60.5    39    6.1   156    13.1   99999.0    0.00 
 293   11:40   0.70   60.0    40    5.5   129    11.7   99999.0    0.00 
 293   11:50   0.48   60.9    37    6.8   100    14.9   99999.0    0.00 
 293   12:00   0.46   59.8    37    8.0   108    14.3   99999.0    0.00 
 293   12:10   0.35   58.4    39    6.1   138    13.7   99999.0    0.00 
 293   12:20   0.66   59.9    38    5.5   130    16.7   99999.0    0.00 
 293   12:30   0.56   61.4    36    5.6   134    14.3   99999.0    0.00 
 293   12:40   0.45   60.5    36    4.6   152    10.8   99999.0    0.00 
 293   12:50   0.68   61.1    36    5.4   148    11.3   99999.0    0.00 
 293   13:00   0.59   61.6    35    4.6   122    10.2   99999.0    0.00 
 293   13:10   0.87   62.3    34    5.8   120    11.3   99999.0    0.00 
 293   13:20   0.92   63.8    32    7.0   151    11.9   99999.0    0.00 
 293   13:30   0.92   63.8    31    7.0   180    15.5   99999.0    0.00 
 293   13:40   0.51   62.7    32    5.6   153    13.1   99999.0    0.00 
 293   13:50   0.88   64.0    32    5.1   156    10.2   99999.0    0.00 
 293   14:00   0.28   62.5    32    5.1   173    13.7   99999.0    0.00 
 293   14:10   0.54   60.6    35    4.5   180    10.8   99999.0    0.00 
 293   14:20   0.74   62.6    32    6.1   172    12.5   99999.0    0.00 
 293   14:30   0.57   62.3    35    7.2   191    13.7   99999.0    0.00 
 293   14:40   0.53   59.4    44    6.5   175    20.3   99999.0    0.00 
 293   14:50   0.24   57.8    48    5.8   196    14.3   99999.0    0.00 
 293   15:00   0.14   54.1    60    4.1   178    11.3   99999.0    0.00 
 293   15:10   0.17   53.6    57    6.8   147    19.7   99999.0    0.00 
 293   15:20   0.17   53.9    53    5.8   151    11.3   99999.0    0.00 
 293   15:30   0.11   53.6    53    5.0   156    12.5   99999.0    0.00 
 293   15:40   0.11   53.4    54    2.4   145     6.0   99999.0    0.00 
 293   15:50   0.10   53.1    56    2.8   187     6.6   99999.0    0.00 
 293   16:00   0.08   53.0    56    2.8   177     7.8   99999.0    0.00 
 293   16:10   0.09   52.8    56    1.8   185     4.2   99999.0    0.00 
 293   16:20   0.07   52.9    57    0.7   176     3.0   99999.0    0.00 
 293   16:30   0.07   52.9    57    0.9   172     2.4   99999.0    0.00 
 293   16:40   0.05   52.8    55    0.3   199     2.4   99999.0    0.00 
 293   16:50   0.03   52.4    60    0.0     0     0.0   99999.0    0.00 
 293   17:00   0.02   51.7    62    0.1   334     1.2   99999.0    0.00 
 293   17:10   0.01   50.7    65    0.4    80     2.4   99999.0    0.00 
 293   17:20   0.01   48.7    69    2.2    66     3.0   99999.0    0.00 
 293   17:30   0.00   47.1    74    0.2    46     1.8   99999.0    0.00 
 293   17:40   0.00   45.3    77    1.2    66     3.6   99999.0    0.00 
 293   17:50   0.00   43.8    80    1.2    70     3.0   99999.0    0.00 
 293   18:00   0.00   42.4    82    0.0    74     1.2   99999.0    0.00 
 293   18:10   0.00   41.2    84    0.0     0     0.0   99999.0    0.00 
 293   18:20   0.00   40.2    86    2.2    80     3.6   99999.0    0.00 
 293   18:30   0.00   39.9    86    0.8    76     3.6   99999.0    0.00 
 293   18:40   0.00   39.6    86    0.0    96     1.2   99999.0    0.00 
 293   18:50   0.00   39.2    87    0.0     0     0.0   99999.0    0.00 
 293   19:00   0.00   39.1    88    0.0     0     0.0   99999.0    0.00 
 293   19:10   0.00   39.1    89    0.7    68     3.0   99999.0    0.00 
 293   19:20   0.00   38.8    91    0.4   344     2.4   99999.0    0.00 
 293   19:30   0.00   38.4    92    0.6    60     2.4   99999.0    0.00 
 293   19:40   0.00   37.8    93    0.9    70     3.0   99999.0    0.00 
 293   19:50   0.00   37.2    94    0.7    59     2.4   99999.0    0.00 
 293   20:00   0.00   37.0    95    0.9    66     2.4   99999.0    0.00 
 293   20:10   0.00   37.6    96    1.2    65     3.0   99999.0    0.00 
 293   20:20   0.00   38.2    95    2.0    74     4.2   99999.0    0.00 
 293   20:30   0.00   39.1    95    1.8    67     4.2   99999.0    0.00 
 293   20:40   0.00   40.4    94    2.3    75     5.4   99999.0    0.00 
 293   20:50   0.00   42.6    88    0.2    66     2.4   99999.0    0.00 
 293   21:00   0.00   42.8    86    0.0     0     0.0   99999.0    0.00 
 293   21:10   0.00   42.3    87    0.5   119     2.4   99999.0    0.00 
 293   21:20   0.00   43.0    86    0.6   113     4.8   99999.0    0.00 
 293   21:30   0.00   43.7    84    0.8   140     4.2   99999.0    0.00 
 293   21:40   0.00   44.4    82    0.6   120     5.4   99999.0    0.00 
 293   21:50   0.00   44.3    82    0.1    66     1.8   99999.0    0.00 
 293   22:00   0.00   44.1    83    0.2    78     2.1   99999.0    0.00 
 293   22:10   0.00   43.7    84    0.6    77     3.0   99999.0    0.00 
 293   22:20   0.00   43.0    84    1.2    76     3.6   99999.0    0.00 
 293   22:30   0.00   41.6    87    2.7    80     4.8   99999.0    0.00 
 293   22:40   0.00   41.0    88    1.3    55     4.2   99999.0    0.00 
 293   22:50   0.00   40.7    89    1.7    62     3.6   99999.0    0.00 
 293   23:00   0.00   40.6    90    0.7    83     4.2   99999.0    0.00 
 293   23:10   0.00   40.6    91    0.9    78     4.2   99999.0    0.00 
 293   23:20   0.00   42.3    90    1.8    81     4.2   99999.0    0.00 
 293   23:30   0.00   43.9    85    2.9   102     7.2   99999.0    0.00 
 293   23:40   0.00   45.0    82    3.4   103     6.6   99999.0    0.00 
 293   23:50   0.00   46.1    79    4.3   103     9.0   99999.0    0.00 
 294    0:00   0.00   46.7    76    4.2   104    13.1   99999.0    0.00 
 294    0:10   0.00   46.3    76    3.9   100     9.0   99999.0    0.00 
 294    0:20   0.00   46.1    77    4.1    99     9.6   99999.0    0.00 
 294    0:30   0.00   46.1    78    4.1   104     9.0   99999.0    0.00 
 294    0:40   0.00   46.0    79    4.4   113    10.8   99999.0    0.00 
 294    0:50   0.00   46.1    80    3.4    94     7.8   99999.0    0.00 
 294    1:00   0.00   45.8    81    2.6    96     5.4   99999.0    0.00 
 294    1:10   0.00   45.2    82    1.1   117     4.2   99999.0    0.00 
 294    1:20   0.00   44.8    84    0.7   113     3.0   99999.0    0.00 
 294    1:30   0.00   44.2    85    1.6   124     4.2   99999.0    0.00 
 294    1:40   0.00   42.7    87    0.8   119     4.2   99999.0    0.00 
 294    1:50   0.00   42.1    91    2.8   107     6.0   99999.0    0.00 
 294    2:00   0.00   41.5    90    2.6   104     5.4   99999.0    0.00 
 294    2:10   0.00   40.7    92    2.6    87     6.6   99999.0    0.00 
 294    2:20   0.00   40.4    94    0.8    66     4.2   99999.0    0.00 
 294    2:30   0.00   40.2    95    0.0     0     0.0   99999.0    0.00 
 294    2:40   0.00   39.3    94    0.0    25     1.2   99999.0    0.00 
 294    2:50   0.00   38.0    95    0.0     0     0.0   99999.0    0.00 
 294    3:00   0.00   36.9    96    0.0    69     1.2   99999.0    0.00 
 294    3:10   0.00   36.2    96    0.0     0     0.0   99999.0    0.00 
 294    3:20   0.00   36.2    97    0.7    75     3.0   99999.0    0.00 
 294    3:30   0.00   36.4    98    0.6    71     2.4   99999.0    0.00 
 294    3:40   0.00   36.9    98    0.0    61     1.2   99999.0    0.00 
 294    3:50   0.00   37.2    98    0.0     0     0.0   99999.0    0.00 
 294    4:00   0.00   37.6    98    0.0     0     0.0   99999.0    0.00 
 294    4:10   0.00   37.6    98    0.0     0     0.0   99999.0    0.00 
 294    4:20   0.00   37.9    98    0.0     0     0.0   99999.0    0.00 
 294    4:30   0.00   38.2    98    0.0     0     0.0   99999.0    0.00 
 294    4:40   0.00   38.7    98    0.0    91     1.2   99999.0    0.00 
 294    4:50   0.00   39.1    98    0.0     0     0.0   99999.0    0.00 
 294    5:00   0.00   39.4    98    0.0   130     1.2   99999.0    0.00 
 294    5:10   0.00   39.8    98    0.0     0     0.0   99999.0    0.00 
 294    5:20   0.00   40.4    98    0.6    57     1.8   99999.0    0.00 
 294    5:30   0.00   40.7    97    0.6    60     3.0   99999.0    0.00 
 294    5:40   0.00   40.8    97    0.4    18     1.8   99999.0    0.00 
 294    5:50   0.00   40.8    96    0.3    21     1.8   99999.0    0.00 
 294    6:00   0.00   40.9    96    0.0     0     0.0   99999.0    0.00 
 294    6:10   0.00   41.0    96    0.0     0     0.0   99999.0    0.00 
 294    6:20   0.00   41.0    96    0.0     0     0.0   99999.0    0.00 
 294    6:30   0.00   41.1    96    1.1   118     4.8   99999.0    0.00 
 294    6:40   0.01   41.4    96    0.3   101     1.8   99999.0    0.00 
 294    6:50   0.01   41.6    96    0.1    84     2.4   99999.0    0.00 
 294    7:00   0.02   42.1    95    0.6    86     2.1   99999.0    0.00 
 294    7:10   0.03   42.6    94    0.3    85     3.0   99999.0    0.00 
 294    7:20   0.03   43.3    92    1.4    82     4.8   99999.0    0.00 
 294    7:30   0.05   44.7    84    4.2    92     7.2   99999.0    0.00 
 294    7:40   0.08   45.5    81    2.1    83     6.6   99999.0    0.00 
 294    7:50   0.09   46.1    80    2.8    78     6.0   99999.0    0.00 
 294    8:00   0.12   46.4    79    2.5    82     5.4   99999.0    0.00 
 294    8:10   0.18   47.2    77    2.9    95    10.2   99999.0    0.00 
 294    8:20   0.14   47.6    76    3.9   123    10.2   99999.0    0.00 

Return to Cebollita Spring, Valles Caldera graphs page.


Western Regional Climate Center,wrcc@dri.edu